Time;durP1;ratioP1;P1;durP2;ratioP2;P2;SDS_P1;SDS_P2;PMS_P1;PMS_P2;Temp;Humidity;BMP_temperature;BMP_pressure;BME280_temperature;BME280_humidity;BME280_pressure;Samples;Min_cycle;Max_cycle;Signal;HPM_P1;HPM_P2
2022/05/21 00:02:22;;;;;;;3.95;2.10;;;;;;;18.53;47.70;100049.44;5029483;28;20057;-42
2022/05/21 00:04:47;;;;;;;5.97;2.15;;;;;;;18.45;48.14;100050.69;5029564;28;20029;-43
2022/05/21 00:07:13;;;;;;;7.07;2.38;;;;;;;18.54;48.05;100048.34;5029370;28;20029;-43
2022/05/21 00:09:39;;;;;;;4.82;2.33;;;;;;;18.50;48.15;100045.34;5029574;28;20025;-42
2022/05/21 00:12:05;;;;;;;5.45;2.30;;;;;;;18.31;48.64;100049.38;5030272;28;20018;-42
2022/05/21 00:14:33;;;;;;;4.32;2.20;;;;;;;18.30;48.26;100043.19;5030283;28;20029;-43
2022/05/21 00:16:59;;;;;;;9.68;2.60;;;;;;;18.17;49.34;100040.84;5029950;28;20051;-42
2022/05/21 00:19:24;;;;;;;3.92;2.42;;;;;;;18.17;49.35;100043.53;5029981;28;20017;-42
2022/05/21 00:21:49;;;;;;;9.05;2.72;;;;;;;18.28;49.41;100044.50;5030048;28;20025;-42
2022/05/21 00:24:15;;;;;;;9.30;2.53;;;;;;;18.28;49.35;100039.13;5030200;28;20408;-42
2022/05/21 00:26:40;;;;;;;5.93;2.80;;;;;;;18.20;49.39;100040.34;5029843;28;20426;-42
2022/05/21 00:29:06;;;;;;;6.47;2.42;;;;;;;18.02;50.28;100036.03;5030160;28;20057;-43
2022/05/21 00:31:31;;;;;;;8.02;2.50;;;;;;;18.15;49.93;100041.06;5029956;28;20458;-42
2022/05/21 00:33:57;;;;;;;7.80;2.53;;;;;;;18.07;50.35;100033.41;5029931;28;20108;-42
2022/05/21 00:36:22;;;;;;;7.15;2.70;;;;;;;18.16;49.85;100041.88;5043483;28;20021;-43
2022/05/21 00:38:48;;;;;;;5.50;2.53;;;;;;;18.10;50.47;100041.00;5049536;28;20027;-43
2022/05/21 00:41:16;;;;;;;9.88;2.80;;;;;;;18.21;50.35;100038.47;5049675;28;20060;-42
2022/05/21 00:43:54;;;;;;;6.20;3.08;;;;;;;18.00;48.64;100040.84;5049652;28;20037;-42
2022/05/21 00:46:42;;;;;;;6.82;2.80;;;;;;;18.12;49.57;100043.44;5049478;28;20215;-42
2022/05/21 00:49:27;;;;;;;6.55;2.80;;;;;;;18.14;50.00;100036.75;5049535;28;20024;-42
2022/05/21 00:51:58;;;;;;;7.53;2.70;;;;;;;17.89;51.50;100047.13;5050190;28;20118;-42
2022/05/21 00:54:28;;;;;;;5.15;2.53;;;;;;;17.92;50.72;100046.63;5049742;28;20094;-42
2022/05/21 00:57:01;;;;;;;6.53;2.90;;;;;;;17.70;51.50;100038.44;5049608;28;20499;-42
2022/05/21 01:02:15;;;;;;;7.88;2.95;;;;;;;17.68;50.75;100038.66;5053729;28;20475;-42
2022/05/21 01:04:44;;;;;;;6.53;3.00;;;;;;;17.61;51.36;100034.50;5053363;28;20033;-42
2022/05/21 01:07:11;;;;;;;6.20;2.57;;;;;;;17.80;49.87;100038.63;5053099;28;20045;-43
2022/05/21 01:09:39;;;;;;;6.53;2.78;;;;;;;17.85;49.37;100037.91;5052244;28;20271;-42
2022/05/21 01:12:06;;;;;;;6.13;2.90;;;;;;;17.92;50.30;100031.28;5052789;28;20021;-42
2022/05/21 01:14:32;;;;;;;6.30;2.40;;;;;;;17.93;49.88;100024.88;5052740;28;20103;-42
2022/05/21 01:17:00;;;;;;;5.22;2.83;;;;;;;17.84;50.20;100028.16;5052930;28;20116;-42
2022/05/21 01:19:25;;;;;;;4.60;2.40;;;;;;;17.85;50.69;100027.13;5052813;28;20067;-42
2022/05/21 01:21:51;;;;;;;4.10;2.50;;;;;;;17.62;51.93;100026.19;5052710;28;20021;-42
2022/05/21 01:24:16;;;;;;;5.35;2.53;;;;;;;17.57;51.59;100021.53;5052856;28;20031;-42
2022/05/21 01:26:43;;;;;;;6.70;2.60;;;;;;;17.56;50.98;100008.34;5052699;28;20111;-43
2022/05/21 01:29:21;;;;;;;7.25;2.85;;;;;;;17.47;51.83;100015.16;5052563;28;20032;-43
2022/05/21 01:31:52;;;;;;;6.95;2.92;;;;;;;17.52;51.63;100012.56;5052708;28;20404;-42
2022/05/21 01:34:18;;;;;;;6.97;3.08;;;;;;;17.38;52.22;100009.34;5052707;28;20516;-43
2022/05/21 01:36:46;;;;;;;7.15;2.88;;;;;;;17.43;51.29;100006.75;5035864;28;20033;-43
2022/05/21 01:39:12;;;;;;;6.07;2.80;;;;;;;17.26;51.87;100000.53;5032834;28;20029;-42
2022/05/21 01:41:41;;;;;;;5.43;2.67;;;;;;;17.03;52.54;99996.88;5032576;28;20026;-42
2022/05/21 01:46:51;;;;;;;7.68;2.90;;;;;;;17.11;52.77;100003.75;5032371;28;20036;-42
2022/05/21 01:49:16;;;;;;;8.43;2.80;;;;;;;17.03;52.11;100007.63;5032688;28;20100;-42
2022/05/21 01:51:41;;;;;;;7.72;2.60;;;;;;;17.07;52.40;100013.34;5032238;28;20091;-42
2022/05/21 01:54:07;;;;;;;5.35;2.83;;;;;;;16.87;52.93;100005.69;5032297;28;20546;-42
2022/05/21 01:56:32;;;;;;;7.80;2.85;;;;;;;16.77;52.56;99995.53;5032045;28;20546;-43
2022/05/21 01:58:58;;;;;;;9.93;2.88;;;;;;;16.96;52.63;99993.50;5032422;28;20021;-42
2022/05/21 02:01:25;;;;;;;7.22;2.50;;;;;;;16.76;52.10;100002.78;5032527;28;20021;-42
2022/05/21 02:03:50;;;;;;;7.60;2.75;;;;;;;16.70;51.10;99995.69;5032304;28;20028;-42
2022/05/21 02:06:16;;;;;;;5.88;2.63;;;;;;;16.56;51.49;99995.13;5032269;28;20025;-42
2022/05/21 02:08:41;;;;;;;5.38;2.55;;;;;;;16.49;51.13;99989.06;5031976;28;20496;-42
2022/05/21 02:11:06;;;;;;;4.60;2.70;;;;;;;16.41;51.15;99992.94;5031217;28;20018;-43
2022/05/21 02:13:34;;;;;;;5.53;2.30;;;;;;;16.52;51.66;99985.09;5032195;28;20076;-41
2022/05/21 02:16:00;;;;;;;8.75;2.80;;;;;;;16.66;51.82;99989.16;5032051;28;20091;-42
2022/05/21 02:18:26;;;;;;;4.25;2.40;;;;;;;16.73;52.05;99989.00;5042791;28;20017;-42
2022/05/21 02:20:52;;;;;;;7.90;3.00;;;;;;;16.67;50.54;99979.22;5051896;28;20047;-42
2022/05/21 02:23:18;;;;;;;9.15;2.60;;;;;;;16.73;50.53;99981.75;5051830;28;20041;-42
2022/05/21 02:25:44;;;;;;;6.85;2.88;;;;;;;16.54;50.19;99964.97;5051684;28;20029;-42
2022/05/21 02:28:10;;;;;;;8.50;2.90;;;;;;;16.49;50.91;99975.63;5051935;28;20033;-42
2022/05/21 02:30:36;;;;;;;7.93;2.80;;;;;;;16.48;51.36;99986.63;5051463;28;20063;-42
2022/05/21 02:33:02;;;;;;;12.43;3.33;;;;;;;16.53;51.04;99990.22;5051865;28;20044;-42
2022/05/21 02:35:27;;;;;;;5.38;2.97;;;;;;;16.53;50.55;99982.16;5044705;28;20025;-41
2022/05/21 02:40:37;;;;;;;11.50;2.85;;;;;;;16.60;51.12;99985.53;5031918;28;20037;-42
2022/05/21 02:43:03;;;;;;;8.00;2.97;;;;;;;16.48;51.12;99987.41;5031733;28;20402;-42
2022/05/21 02:45:29;;;;;;;6.18;2.70;;;;;;;16.53;50.64;99978.66;5031234;28;20055;-42
2022/05/21 02:47:56;;;;;;;4.55;2.80;;;;;;;16.59;50.66;99975.84;5031204;28;20021;-43
2022/05/21 02:50:28;;;;;;;10.73;2.90;;;;;;;16.52;50.34;99975.16;5031522;28;20045;-43
2022/05/21 02:52:54;;;;;;;14.90;3.17;;;;;;;16.49;50.15;99972.16;5031281;28;20038;-43
2022/05/21 02:55:20;;;;;;;10.10;2.92;;;;;;;16.49;50.68;99975.63;5031193;28;20022;-42
2022/05/21 02:57:46;;;;;;;5.35;2.60;;;;;;;16.59;50.61;99989.28;5030791;28;20020;-42
2022/05/21 03:00:18;;;;;;;7.90;2.97;;;;;;;16.65;50.23;99982.13;5031176;28;20105;-43
2022/05/21 03:02:44;;;;;;;9.45;3.58;;;;;;;16.63;50.00;99991.50;5031022;28;20065;-43
2022/05/21 03:05:10;;;;;;;8.18;2.80;;;;;;;16.59;50.08;99986.59;5031430;28;20036;-42
2022/05/21 03:07:47;;;;;;;9.55;2.50;;;;;;;16.68;49.66;99989.72;5030877;28;20026;-43
2022/05/21 03:10:22;;;;;;;4.45;2.30;;;;;;;16.55;48.96;99974.69;5031189;28;20128;-43
2022/05/21 03:12:52;;;;;;;3.83;2.13;;;;;;;16.47;49.21;99976.91;5031113;28;20028;-44
2022/05/21 03:15:19;;;;;;;4.97;2.50;;;;;;;16.45;49.68;99981.69;5031044;28;20068;-43
2022/05/21 03:17:46;;;;;;;6.03;2.83;;;;;;;16.59;49.13;99977.72;5030552;28;20123;-43
2022/05/21 03:20:13;;;;;;;9.35;3.10;;;;;;;16.64;50.61;99983.19;5031146;28;20037;-43
2022/05/21 03:22:40;;;;;;;5.15;2.90;;;;;;;16.73;48.69;99991.69;5030503;28;20029;-43
2022/05/21 03:25:07;;;;;;;7.20;2.95;;;;;;;16.70;49.63;99989.50;5030732;28;20025;-42
2022/05/21 03:27:33;;;;;;;8.75;2.88;;;;;;;16.60;49.88;99990.06;5030429;28;20034;-43
2022/05/21 03:29:58;;;;;;;8.38;3.20;;;;;;;16.67;50.08;99998.84;5030366;28;20127;-43
2022/05/21 03:32:24;;;;;;;5.63;2.60;;;;;;;16.73;50.63;100005.94;5029453;28;20029;-43
2022/05/21 03:34:49;;;;;;;9.07;2.85;;;;;;;16.78;49.68;99995.28;5031389;28;20104;-42
2022/05/21 03:37:14;;;;;;;6.57;2.88;;;;;;;16.81;49.44;99991.31;5050102;28;20389;-42
2022/05/21 03:39:40;;;;;;;8.38;2.70;;;;;;;16.93;49.05;99989.44;5050642;28;20071;-42
2022/05/21 03:42:06;;;;;;;8.65;2.80;;;;;;;17.33;49.00;99993.94;5050893;28;20035;-42
2022/05/21 03:44:31;;;;;;;5.22;2.55;;;;;;;17.65;47.29;99997.97;5050664;28;20408;-43
2022/05/21 03:46:58;;;;;;;5.85;2.83;;;;;;;18.20;46.80;99994.56;5049824;28;20036;-43
2022/05/21 03:49:26;;;;;;;6.28;2.13;;;;;;;18.58;44.92;99998.28;5049426;28;20548;-43
2022/05/21 03:51:52;;;;;;;5.78;2.38;;;;;;;18.97;43.24;99995.56;5050269;28;20048;-43
2022/05/21 03:54:18;;;;;;;5.40;2.53;;;;;;;19.40;43.08;100001.94;5050545;28;20033;-43
2022/05/21 03:56:43;;;;;;;9.77;2.90;;;;;;;19.95;44.53;100008.06;5050061;28;20057;-42
2022/05/21 03:59:09;;;;;;;8.00;3.10;;;;;;;20.62;44.63;100001.22;5050218;28;20056;-43
2022/05/21 04:01:35;;;;;;;5.05;2.30;;;;;;;21.22;41.33;100003.56;5049942;28;20025;-42
2022/05/21 04:04:00;;;;;;;6.18;2.38;;;;;;;21.81;40.59;99994.97;5050430;28;20112;-42
2022/05/21 04:06:26;;;;;;;6.25;2.30;;;;;;;22.23;39.52;100009.28;5050259;28;20025;-42
2022/05/21 04:08:52;;;;;;;5.38;2.30;;;;;;;22.78;38.88;100004.78;5050355;28;20473;-43
2022/05/21 04:11:18;;;;;;;4.47;2.20;;;;;;;23.24;37.10;100006.47;5050143;28;20032;-42
2022/05/21 04:13:43;;;;;;;4.93;2.20;;;;;;;23.67;34.81;100003.97;5050295;28;20198;-43
2022/05/21 04:16:09;;;;;;;6.88;2.88;;;;;;;24.17;34.54;100001.91;5049938;28;20033;-42
2022/05/21 04:18:34;;;;;;;13.13;8.90;;;;;;;24.42;33.30;100000.00;5049510;28;20025;-42
2022/05/21 04:21:00;;;;;;;9.88;5.72;;;;;;;24.72;32.57;99998.88;5049190;28;20017;-43
2022/05/21 04:23:25;;;;;;;9.00;5.13;;;;;;;25.08;33.24;100005.75;5048759;28;20118;-43
2022/05/21 04:25:51;;;;;;;4.32;2.70;;;;;;;25.48;32.52;99992.66;5049142;28;20033;-42
2022/05/21 04:28:17;;;;;;;4.78;2.30;;;;;;;25.74;30.99;99990.31;5048599;28;20025;-42
2022/05/21 04:30:43;;;;;;;5.45;2.20;;;;;;;26.08;30.50;100000.94;5049206;28;20056;-43
2022/05/21 04:33:09;;;;;;;3.85;2.28;;;;;;;26.23;30.13;100001.75;5049214;28;20025;-43
2022/05/21 04:38:18;;;;;;;5.00;2.30;;;;;;;26.71;29.31;100004.91;5033149;28;20036;-43
2022/05/21 04:40:44;;;;;;;20.55;12.77;;;;;;;26.78;29.44;100003.69;5033363;28;20116;-43
2022/05/21 04:43:09;;;;;;;11.95;8.18;;;;;;;27.06;29.39;99997.06;5031833;28;20044;-42
2022/05/21 04:45:35;;;;;;;10.90;5.13;;;;;;;27.39;28.38;100004.25;5033231;28;20170;-42
2022/05/21 04:48:05;;;;;;;7.63;5.70;;;;;;;27.82;27.86;100003.75;5033139;28;20034;-42
2022/05/21 04:50:31;;;;;;;5.10;2.65;;;;;;;27.56;27.95;100003.59;5032799;28;20171;-43
2022/05/21 04:52:57;;;;;;;5.13;2.50;;;;;;;26.89;28.81;100008.63;5032286;28;20104;-43
2022/05/21 04:55:22;;;;;;;16.55;5.47;;;;;;;27.71;27.67;99989.53;5032551;28;20434;-43
2022/05/21 04:57:48;;;;;;;11.32;7.63;;;;;;;27.94;27.24;99993.06;5032687;28;20465;-43
2022/05/21 05:00:15;;;;;;;4.63;2.60;;;;;;;28.33;26.94;99987.91;5032576;28;20075;-42
2022/05/21 05:02:41;;;;;;;17.90;10.98;;;;;;;28.82;26.30;100003.22;5040870;28;20072;-43
2022/05/21 05:05:07;;;;;;;8.30;4.13;;;;;;;29.01;26.05;100011.13;5043798;28;20028;-43
2022/05/21 05:07:34;;;;;;;7.50;2.42;;;;;;;29.20;25.60;100002.63;5043546;28;20056;-42
2022/05/21 05:09:59;;;;;;;5.55;2.63;;;;;;;29.47;25.76;99994.41;5046142;28;20075;-43
2022/05/21 05:12:25;;;;;;;6.90;2.97;;;;;;;29.70;25.99;100000.50;5041194;28;20024;-43
2022/05/21 05:14:50;;;;;;;4.20;2.60;;;;;;;30.13;25.35;100007.84;5040473;28;20426;-43
2022/05/21 05:17:15;;;;;;;7.65;2.70;;;;;;;30.59;25.04;100000.72;5044778;28;20013;-44
2022/05/21 05:19:41;;;;;;;10.60;2.80;;;;;;;31.02;24.00;100007.09;5044186;28;20433;-43
2022/05/21 05:22:10;;;;;;;10.00;2.80;;;;;;;31.15;23.88;99998.59;5041359;28;20021;-43
2022/05/21 05:24:36;;;;;;;10.98;6.32;;;;;;;31.34;23.70;99994.56;5043829;28;20060;-44
2022/05/21 05:27:02;;;;;;;11.73;4.90;;;;;;;31.58;24.56;100002.09;5040761;28;20033;-43
2022/05/21 05:29:28;;;;;;;12.90;10.27;;;;;;;32.08;23.82;100001.13;5040502;28;20699;-44
2022/05/21 05:31:54;;;;;;;6.45;4.68;;;;;;;31.91;22.87;99999.34;5040617;28;20431;-43
2022/05/21 05:34:19;;;;;;;5.88;2.70;;;;;;;32.15;22.46;100006.84;5048820;28;20470;-44
2022/05/21 05:36:47;;;;;;;3.00;2.10;;;;;;;32.57;21.72;100010.56;5035005;28;20029;-44
2022/05/21 05:39:13;;;;;;;3.72;2.20;;;;;;;32.81;22.34;99999.50;5032323;28;20025;-44
2022/05/21 05:41:39;;;;;;;6.45;3.33;;;;;;;32.90;21.60;100008.44;5032733;28;20026;-44
2022/05/21 05:44:04;;;;;;;5.60;3.90;;;;;;;33.14;20.78;100006.00;5032427;28;20052;-44
2022/05/21 05:46:30;;;;;;;5.00;2.60;;;;;;;33.16;20.94;100001.75;5030706;28;20040;-42
2022/05/21 05:48:56;;;;;;;5.65;2.10;;;;;;;32.83;20.88;99997.22;5031959;28;20060;-47
2022/05/21 05:51:21;;;;;;;5.97;2.00;;;;;;;32.87;21.01;100002.81;5032199;28;20038;-47
2022/05/21 05:53:47;;;;;;;8.88;6.80;;;;;;;33.12;21.23;100006.34;5031918;28;20401;-47
2022/05/21 05:56:13;;;;;;;7.85;4.18;;;;;;;33.38;20.83;100005.91;5031911;28;20021;-49
2022/05/21 06:01:24;;;;;;;7.40;2.20;;;;;;;33.81;20.59;100001.56;5032617;28;20432;-55
2022/05/21 06:03:50;;;;;;;6.80;2.00;;;;;;;33.90;19.92;99995.91;5030443;28;20097;-48
2022/05/21 06:06:16;;;;;;;5.32;2.08;;;;;;;33.92;20.13;99996.34;5031656;28;20057;-49
2022/05/21 06:08:43;;;;;;;4.57;1.90;;;;;;;33.81;19.73;100000.78;5031108;28;20037;-48
2022/05/21 06:11:12;;;;;;;12.57;9.75;;;;;;;34.23;19.18;99990.06;5031523;28;20101;-48
2022/05/21 06:13:37;;;;;;;;;;;;;;;34.77;19.00;99982.22;5045449;28;20040;-48
2022/05/21 06:16:04;;;;;;;6.18;3.08;;;;;;;35.07;18.46;99989.94;5051418;28;19909;-48
2022/05/21 06:18:30;;;;;;;7.45;4.22;;;;;;;35.10;18.77;99990.03;5038936;28;20605;-48
2022/05/21 06:21:00;;;;;;;7.40;3.70;;;;;;;34.18;19.12;99987.56;5031066;28;20025;-49
2022/05/21 06:23:25;;;;;;;6.70;2.53;;;;;;;33.85;19.45;99983.16;5030988;28;20025;-51
2022/05/21 06:25:51;;;;;;;3.17;2.10;;;;;;;34.18;19.12;99979.28;5030854;28;20029;-49
2022/05/21 06:28:17;;;;;;;5.07;2.47;;;;;;;34.39;18.69;99983.72;5030648;28;20021;-49
2022/05/21 06:30:45;;;;;;;4.20;2.40;;;;;;;33.83;19.37;99977.22;5031896;28;20520;-49
2022/05/21 06:33:30;;;;;;;3.95;1.98;;;;;;;32.99;20.10;99974.44;5050860;28;20545;-50
2022/05/21 06:36:08;;;;;;;6.97;2.65;;;;;;;33.43;19.99;99964.28;5050836;28;20373;-49
2022/05/21 06:38:34;;;;;;;6.53;1.92;;;;;;;33.00;20.33;99974.09;5050491;28;20044;-49
2022/05/21 06:41:00;;;;;;;5.10;2.00;;;;;;;33.31;20.21;99965.16;5044871;28;20049;-49
2022/05/21 06:43:26;;;;;;;7.15;2.10;;;;;;;33.49;19.99;99956.53;5041288;28;20085;-52
2022/05/21 06:45:51;;;;;;;9.18;2.92;;;;;;;34.29;19.52;99960.22;5030541;28;20359;-48
2022/05/21 06:48:16;;;;;;;8.70;2.10;;;;;;;34.79;18.86;99966.09;5034452;28;20024;-48
2022/05/21 06:50:42;;;;;;;5.18;2.05;;;;;;;34.87;19.00;99961.50;5040891;28;20021;-52
2022/05/21 06:53:07;;;;;;;4.65;2.58;;;;;;;34.60;20.35;99947.50;5039537;28;20535;-48
2022/05/21 06:55:33;;;;;;;5.72;2.40;;;;;;;34.28;19.31;99947.56;5039844;28;20020;-48
2022/05/21 06:57:58;;;;;;;4.63;1.80;;;;;;;33.02;20.65;99955.25;5039688;28;20025;-49
2022/05/21 07:00:24;;;;;;;3.60;1.80;;;;;;;33.30;20.66;99943.44;5040200;28;20091;-50
2022/05/21 07:02:51;;;;;;;4.10;1.85;;;;;;;33.80;20.67;99939.28;5043956;28;20013;-49
2022/05/21 07:08:03;;;;;;;4.07;2.00;;;;;;;33.87;19.77;99936.69;5046303;28;20058;-49
2022/05/21 07:10:29;;;;;;;7.03;2.85;;;;;;;34.41;20.25;99929.72;5039578;28;20025;-52
2022/05/21 07:12:55;;;;;;;5.28;2.70;;;;;;;34.42;22.40;99919.47;5036452;28;20490;-53
2022/05/21 07:15:21;;;;;;;8.23;3.30;;;;;;;34.37;20.03;99905.94;5030327;28;20025;-49
2022/05/21 07:17:47;;;;;;;4.40;2.13;;;;;;;34.90;19.79;99903.53;5030685;28;20023;-50
2022/05/21 07:20:16;;;;;;;5.60;2.60;;;;;;;34.93;19.44;99902.81;5049316;28;20063;-51
2022/05/21 07:22:43;;;;;;;5.65;2.35;;;;;;;35.48;18.95;99901.88;5049432;28;20484;-49
2022/05/21 07:25:14;;;;;;;5.60;2.10;;;;;;;35.74;17.88;99899.19;5049557;28;20021;-50
2022/05/21 07:27:40;;;;;;;4.53;2.00;;;;;;;35.75;18.10;99897.22;5049730;28;20499;-52
2022/05/21 07:30:07;;;;;;;10.68;5.60;;;;;;;35.14;18.49;99883.06;5049850;28;20045;-47
2022/05/21 07:32:33;;;;;;;6.57;2.22;;;;;;;34.64;18.64;99884.81;5050063;28;20029;-48
2022/05/21 07:35:02;;;;;;;8.07;6.07;;;;;;;34.47;19.42;99875.78;5047088;28;20526;-49
2022/05/21 07:37:27;;;;;;;7.60;2.20;;;;;;;34.56;19.16;99864.53;5029718;28;20091;-51
2022/05/21 07:39:53;;;;;;;4.68;2.00;;;;;;;35.17;19.00;99868.53;5029725;28;20033;-51
2022/05/21 07:42:19;;;;;;;3.20;1.80;;;;;;;35.60;17.46;99851.88;5029802;28;20083;-51
2022/05/21 07:44:44;;;;;;;3.78;2.08;;;;;;;35.94;17.29;99850.06;5029466;28;20029;-37
2022/05/21 07:47:10;;;;;;;2.47;1.80;;;;;;;35.67;17.31;99840.16;5029303;28;20401;-37
2022/05/21 07:49:35;;;;;;;5.88;2.03;;;;;;;35.40;17.94;99843.66;5029768;28;20041;-37
2022/05/21 07:52:01;;;;;;;5.35;2.10;;;;;;;35.37;17.75;99835.31;5030089;28;20078;-39
2022/05/21 07:54:27;;;;;;;6.28;2.03;;;;;;;35.50;17.67;99839.47;5029857;28;20060;-36
2022/05/21 07:56:53;;;;;;;7.43;2.30;;;;;;;35.52;17.31;99826.06;5029929;28;20067;-36
2022/05/21 07:59:18;;;;;;;9.35;4.00;;;;;;;36.09;17.48;99830.91;5047789;28;20021;-37
2022/05/21 08:01:44;;;;;;;8.95;3.67;;;;;;;36.38;17.46;99821.03;5047848;28;20025;-37
2022/05/21 08:04:09;;;;;;;4.32;2.08;;;;;;;35.87;17.06;99813.19;5031184;28;20077;-36
2022/05/21 08:06:35;;;;;;;2.80;1.90;;;;;;;34.77;17.65;99811.69;5036769;28;20024;-38
2022/05/21 08:09:01;;;;;;;2.53;1.98;;;;;;;35.77;17.06;99817.41;5038148;28;20453;-37
2022/05/21 08:11:27;;;;;;;5.32;2.00;;;;;;;35.50;17.52;99819.31;5042473;28;20068;-36
2022/05/21 08:13:53;;;;;;;5.90;1.98;;;;;;;35.44;18.13;99814.09;5049611;28;20469;-37
2022/05/21 08:16:18;;;;;;;3.25;1.90;;;;;;;35.58;17.43;99807.19;5043308;28;20060;-38
2022/05/21 08:18:44;;;;;;;4.25;2.20;;;;;;;34.84;18.55;99800.78;5041496;28;20066;-37
2022/05/21 08:21:09;;;;;;;3.22;2.03;;;;;;;34.92;18.08;99803.66;5043205;28;20496;-38
2022/05/21 08:29:33;;;;;;;4.40;1.70;;;;;;;34.47;18.27;99790.16;5019453;28;20099;-38
2022/05/21 08:32:00;;;;;;;2.22;1.70;;;;;;;34.89;17.53;99788.63;5014089;28;20172;-38
2022/05/21 08:34:26;;;;;;;6.30;2.10;;;;;;;35.15;17.13;99798.97;5033293;28;20039;-37
2022/05/21 08:36:53;;;;;;;4.72;2.78;;;;;;;35.92;16.84;99791.50;5041766;28;20075;-37
2022/05/21 08:39:19;;;;;;;6.60;3.30;;;;;;;36.27;17.17;99789.63;5040939;28;20041;-38
2022/05/21 08:41:58;;;;;;;7.63;3.10;;;;;;;34.88;17.07;99792.56;5041795;28;20021;-37
2022/05/21 08:45:00;;;;;;;6.13;2.00;;;;;;;35.96;17.00;99778.53;5041368;28;20021;-37
2022/05/21 08:47:36;;;;;;;5.72;1.90;;;;;;;36.35;16.46;99781.03;5038797;28;20135;-37
2022/05/21 08:50:10;;;;;;;5.93;2.00;;;;;;;35.04;16.85;99771.13;5038399;28;20148;-37
2022/05/21 08:52:59;;;;;;;4.03;1.85;;;;;;;35.15;17.17;99773.28;5040040;28;20052;-37
2022/05/21 08:55:43;;;;;;;5.07;1.77;;;;;;;36.16;16.72;99765.34;5044228;28;20033;-37
2022/05/21 08:58:17;;;;;;;6.43;2.67;;;;;;;35.81;16.79;99762.88;5038509;28;20036;-37
2022/05/21 09:00:46;;;;;;;7.00;2.95;;;;;;;36.78;15.75;99759.38;5040911;28;20026;-37
2022/05/21 09:03:14;;;;;;;5.03;3.10;;;;;;;37.34;15.45;99753.94;5042128;28;20033;-38
2022/05/21 09:06:03;;;;;;;7.57;1.95;;;;;;;37.25;15.29;99751.50;5044171;28;20029;-37
2022/05/21 09:08:37;;;;;;;8.45;2.22;;;;;;;37.53;15.26;99739.03;5019859;28;20106;-37
2022/05/21 09:11:11;;;;;;;5.68;2.00;;;;;;;37.52;14.91;99738.19;5042842;28;20033;-37
2022/05/21 09:13:44;;;;;;;8.63;4.38;;;;;;;37.36;15.09;99732.16;5044037;28;20075;-37
2022/05/21 09:18:59;;;;;;;3.10;1.70;;;;;;;36.30;14.86;99725.97;5043821;28;20044;-38
2022/05/21 09:21:27;;;;;;;4.10;1.80;;;;;;;36.15;15.57;99729.72;5044467;28;20037;-37
2022/05/21 09:23:55;;;;;;;5.82;2.05;;;;;;;36.34;16.32;99714.94;5047136;28;20025;-37
2022/05/21 09:26:26;;;;;;;4.47;1.70;;;;;;;36.14;16.16;99719.84;5040928;28;20057;-37
2022/05/21 09:29:09;;;;;;;3.92;1.70;;;;;;;35.57;16.57;99717.06;5042989;28;20031;-38
2022/05/21 09:31:35;;;;;;;3.45;1.85;;;;;;;35.49;16.16;99713.41;5041485;28;20049;-37
2022/05/21 09:34:26;;;;;;;5.82;1.83;;;;;;;36.38;16.63;99713.78;5032855;28;20092;-37
2022/05/21 09:36:52;;;;;;;4.70;1.70;;;;;;;36.72;16.30;99707.44;5031876;28;20021;-37
2022/05/21 09:39:41;;;;;;;3.65;1.92;;;;;;;36.62;15.95;99700.59;5036954;28;20022;-36
2022/05/21 09:45:23;;;;;;;5.68;2.13;;;;;;;36.96;16.34;99693.00;5048304;28;20027;-38
2022/05/21 09:48:03;;;;;;;5.15;2.17;;;;;;;36.90;15.80;99686.22;5051528;28;20025;-36
2022/05/21 09:50:30;;;;;;;8.27;1.92;;;;;;;35.79;16.93;99679.44;5051943;28;20116;-37
2022/05/21 09:52:55;;;;;;;4.82;1.88;;;;;;;34.53;17.97;99677.41;5051375;28;20075;-38
2022/05/21 09:55:28;;;;;;;5.25;2.10;;;;;;;35.49;16.37;99676.63;5052023;28;20497;-37
2022/05/21 09:58:05;;;;;;;3.78;2.10;;;;;;;36.35;16.09;99675.00;5051493;28;20060;-37
2022/05/21 10:00:33;;;;;;;4.88;1.90;;;;;;;36.08;16.04;99680.59;5052169;28;20029;-36
2022/05/21 10:03:05;;;;;;;7.57;2.08;;;;;;;36.12;17.41;99677.84;5051342;28;20021;-36
2022/05/21 10:05:36;;;;;;;8.27;2.00;;;;;;;36.65;15.70;99669.34;5051292;28;20024;-36
2022/05/21 10:11:00;;;;;;;8.80;3.95;;;;;;;36.18;17.51;99671.63;5050449;28;20048;-37
2022/05/21 10:13:31;;;;;;;3.83;2.15;;;;;;;36.76;17.19;99667.47;5050038;28;20413;-37
2022/05/21 10:16:15;;;;;;;5.93;2.40;;;;;;;36.37;16.99;99670.66;5050017;28;20052;-38
2022/05/21 10:19:06;;;;;;;5.88;1.90;;;;;;;36.17;17.20;99664.50;5050081;28;20477;-37
2022/05/21 10:21:42;;;;;;;7.20;2.20;;;;;;;36.39;17.02;99664.75;5049701;28;20037;-38
2022/05/21 10:24:18;;;;;;;5.70;2.20;;;;;;;37.37;16.92;99665.16;5049568;28;20040;-37
2022/05/21 10:27:03;;;;;;;6.60;2.20;;;;;;;37.85;15.04;99669.00;5049903;28;20029;-38
2022/05/21 10:29:54;;;;;;;3.00;1.77;;;;;;;38.11;13.02;99652.06;5050131;28;20438;-37
2022/05/21 10:32:39;;;;;;;8.50;1.70;;;;;;;38.36;12.58;99656.88;5049898;28;20108;-38
2022/05/21 10:35:50;;;;;;;5.55;1.70;;;;;;;38.65;12.49;99654.97;5046179;28;20060;-37
2022/05/21 10:38:27;;;;;;;5.30;1.80;;;;;;;38.88;12.66;99643.47;5030398;28;20101;-37
2022/05/21 10:41:14;;;;;;;6.55;1.70;;;;;;;39.01;12.53;99646.63;5040982;28;20128;-38
2022/05/21 10:43:58;;;;;;;4.15;1.77;;;;;;;39.32;12.30;99638.66;5049868;28;20071;-38
2022/05/21 10:46:43;;;;;;;2.75;1.65;;;;;;;39.23;12.46;99638.28;5030499;28;20038;-38
2022/05/21 10:49:26;;;;;;;3.50;1.50;;;;;;;39.18;12.42;99633.88;5030633;28;20312;-38
2022/05/21 10:52:02;;;;;;;2.10;1.70;;;;;;;39.47;12.97;99628.28;5030551;28;20036;-38
2022/05/21 10:54:40;;;;;;;1.98;1.48;;;;;;;39.58;12.58;99631.03;5031219;28;20063;-38
2022/05/21 10:57:11;;;;;;;3.97;1.60;;;;;;;39.71;11.58;99625.81;5030763;28;20052;-38
2022/05/21 10:59:57;;;;;;;2.63;1.45;;;;;;;40.22;11.49;99619.56;5030722;28;20349;-38
2022/05/21 11:02:35;;;;;;;1.90;1.33;;;;;;;40.78;11.00;99622.38;5031209;28;20087;-37
2022/05/21 11:05:19;;;;;;;4.30;1.52;;;;;;;39.38;11.77;99622.34;5031124;28;20033;-38
2022/05/21 11:08:10;;;;;;;5.47;4.05;;;;;;;39.56;12.34;99619.50;5028025;28;20025;-38
2022/05/21 11:10:45;;;;;;;12.68;2.78;;;;;;;39.59;11.50;99630.63;5030173;28;20029;-37
2022/05/21 11:13:28;;;;;;;4.55;1.80;;;;;;;39.69;11.76;99624.22;5030663;28;20025;-39
2022/05/21 11:16:01;;;;;;;3.83;1.33;;;;;;;39.54;11.95;99619.91;5030257;28;20033;-37
2022/05/21 11:18:51;;;;;;;3.10;1.60;;;;;;;38.66;12.36;99617.63;5029592;28;20072;-37
2022/05/21 11:21:16;;;;;;;3.88;1.40;;;;;;;39.45;11.87;99609.22;5030064;28;20029;-38
2022/05/21 11:24:23;;;;;;;6.40;1.70;;;;;;;39.93;11.93;99609.81;5030139;28;20040;-50
2022/05/21 11:26:55;;;;;;;2.97;1.80;;;;;;;39.90;12.14;99611.41;5017102;28;20041;-48
2022/05/21 11:29:40;;;;;;;3.85;2.10;;;;;;;39.33;12.53;99600.47;5045720;28;20041;-49
2022/05/21 11:37:58;;;;;;;2.72;1.40;;;;;;;38.71;12.20;99580.31;5049731;28;20542;-49
2022/05/21 11:41:42;;;;;;;5.25;1.80;;;;;;;38.44;13.00;99582.66;5049186;28;20029;-50
2022/05/21 11:47:05;;;;;;;1.60;1.40;;;;;;;37.79;13.94;99568.66;5049533;28;20539;-49
2022/05/21 11:49:34;;;;;;;3.78;1.60;;;;;;;38.46;13.30;99564.44;5049120;28;20036;-51
2022/05/21 11:52:25;;;;;;;2.13;1.38;;;;;;;38.30;12.51;99544.56;5049875;28;20481;-48
2022/05/21 11:54:51;;;;;;;3.42;1.58;;;;;;;38.53;12.57;99544.97;5049075;28;20098;-38
2022/05/21 11:57:47;;;;;;;2.75;1.40;;;;;;;38.66;12.94;99547.38;5050113;28;20033;-38
2022/05/21 12:00:18;;;;;;;2.92;1.40;;;;;;;38.64;13.05;99547.75;5050181;28;20032;-39
2022/05/21 12:02:59;;;;;;;6.85;1.92;;;;;;;39.01;11.93;99540.94;5048723;28;20107;-38
2022/05/21 12:05:46;;;;;;;5.78;1.48;;;;;;;39.54;12.26;99541.19;5047252;28;20519;-39
2022/05/21 12:08:23;;;;;;;2.88;1.40;;;;;;;39.76;11.07;99528.72;5049875;28;20056;-38
2022/05/21 12:11:01;;;;;;;2.65;1.30;;;;;;;39.34;11.30;99524.13;5049348;28;20025;-37
2022/05/21 12:13:33;;;;;;;2.47;1.17;;;;;;;39.47;11.91;99516.94;5049558;28;20126;-37
2022/05/21 12:16:22;;;;;;;3.20;1.95;;;;;;;39.73;12.63;99507.25;5049148;28;20112;-37
2022/05/21 12:18:58;;;;;;;4.93;2.20;;;;;;;39.66;12.12;99496.16;5048160;28;20466;-37
2022/05/21 12:23:55;;;;;;;3.85;1.40;;;;;;;39.41;11.95;99479.59;5048286;28;20458;-38
2022/05/21 12:26:33;;;;;;;2.95;1.70;;;;;;;38.99;11.69;99461.88;5048516;28;20509;-38
2022/05/21 12:29:22;;;;;;;2.42;1.35;;;;;;;38.56;12.52;99456.44;5048651;28;20020;-38